createdAt,value
2018-02-15T00:00:57.020Z,83.70
2018-02-15T00:03:23.562Z,83.70
2018-02-15T00:05:50.216Z,83.80
2018-02-15T00:08:16.837Z,83.70
2018-02-15T00:10:43.374Z,83.80
2018-02-15T00:13:09.941Z,83.80
2018-02-15T00:15:36.813Z,83.80
2018-02-15T00:18:03.370Z,83.80
2018-02-15T00:20:29.942Z,83.60
2018-02-15T00:22:56.545Z,84.10
2018-02-15T00:25:23.069Z,83.60
2018-02-15T00:27:49.661Z,83.00
2018-02-15T00:30:16.233Z,83.20
2018-02-15T00:32:43.137Z,82.80
2018-02-15T00:35:09.803Z,82.80
2018-02-15T00:37:36.369Z,83.20
2018-02-15T00:40:02.929Z,84.10
2018-02-15T00:42:29.870Z,84.00
2018-02-15T00:44:56.449Z,84.00
2018-02-15T00:47:23.355Z,82.80
2018-02-15T00:49:49.965Z,82.90
2018-02-15T00:52:16.524Z,82.40
2018-02-15T00:54:43.061Z,82.60
2018-02-15T00:57:09.628Z,83.20
2018-02-15T00:59:36.225Z,84.00
2018-02-15T01:02:02.845Z,83.90
2018-02-15T01:04:29.406Z,83.60
2018-02-15T01:06:56.019Z,83.60
2018-02-15T01:09:22.546Z,83.30
2018-02-15T01:11:49.164Z,83.30
2018-02-15T01:14:15.717Z,83.30
2018-02-15T01:16:42.714Z,83.60
2018-02-15T01:19:09.361Z,83.60
2018-02-15T01:21:35.929Z,83.80
2018-02-15T01:24:02.468Z,84.10
2018-02-15T01:26:29.134Z,83.90
2018-02-15T01:28:55.787Z,84.10
2018-02-15T01:31:22.316Z,84.20
2018-02-15T01:33:48.885Z,84.00
2018-02-15T01:36:15.528Z,84.40
2018-02-15T01:38:42.057Z,84.30
2018-02-15T01:41:08.621Z,84.70
2018-02-15T01:43:35.198Z,84.70
2018-02-15T01:46:01.725Z,84.80
2018-02-15T01:48:28.321Z,84.90
2018-02-15T01:50:55.015Z,84.30
2018-02-15T01:53:21.549Z,84.50
2018-02-15T01:55:48.108Z,84.40
2018-02-15T01:58:14.708Z,84.80
2018-02-15T02:00:41.600Z,84.40
2018-02-15T02:03:08.156Z,84.40
2018-02-15T02:05:34.729Z,84.10
2018-02-15T02:08:01.659Z,84.20
2018-02-15T02:10:28.281Z,84.20
2018-02-15T02:12:54.845Z,84.00
2018-02-15T02:15:21.384Z,84.10
2018-02-15T02:17:47.965Z,83.80
2018-02-15T02:20:14.830Z,84.10
2018-02-15T02:22:41.396Z,83.60
2018-02-15T02:25:08.338Z,85.40
2018-02-15T02:27:34.897Z,85.40
2018-02-15T02:30:01.814Z,84.20
2018-02-15T02:32:28.397Z,84.20
2018-02-15T02:34:54.961Z,84.20
2018-02-15T02:37:21.860Z,83.60
2018-02-15T02:39:48.426Z,83.60
2018-02-15T02:42:14.994Z,84.30
2018-02-15T02:44:47.427Z,83.80
2018-02-15T02:47:13.993Z,84.50
2018-02-15T02:49:40.561Z,84.10
2018-02-15T02:52:07.165Z,83.80
2018-02-15T02:54:33.733Z,84.30
2018-02-15T02:57:00.257Z,83.90
2018-02-15T02:59:26.841Z,83.30
2018-02-15T03:01:53.422Z,83.80
2018-02-15T03:04:20.545Z,83.20
2018-02-15T03:06:47.194Z,83.30
2018-02-15T03:09:14.177Z,83.20
2018-02-15T03:11:40.709Z,83.20
2018-02-15T03:14:07.277Z,83.30
2018-02-15T03:16:33.858Z,82.70
2018-02-15T03:19:00.388Z,84.00
2018-02-15T03:21:26.955Z,83.10
2018-02-15T03:23:53.532Z,83.60
2018-02-15T03:26:20.069Z,83.30
2018-02-15T03:28:46.633Z,83.20
2018-02-15T03:31:13.205Z,83.40
2018-02-15T03:33:39.797Z,84.30
2018-02-15T03:36:06.445Z,84.00
2018-02-15T03:38:33.124Z,84.00
2018-02-15T03:40:59.649Z,84.30
2018-02-15T03:43:26.201Z,84.60
2018-02-15T03:45:52.837Z,84.10
2018-02-15T03:48:19.373Z,83.70
2018-02-15T03:50:45.971Z,83.00
2018-02-15T03:53:12.586Z,83.00
2018-02-15T03:55:39.132Z,82.90
2018-02-15T03:58:05.703Z,84.00
2018-02-15T04:00:32.265Z,83.90
2018-02-15T04:02:58.801Z,84.10
2018-02-15T04:05:25.448Z,84.10
2018-02-15T04:07:52.012Z,84.60
2018-02-15T04:10:18.545Z,84.90
2018-02-15T04:12:45.109Z,85.50
2018-02-15T04:15:11.677Z,85.70
2018-02-15T04:17:38.602Z,86.90
2018-02-15T04:20:05.199Z,86.90
2018-02-15T04:22:31.799Z,87.00
2018-02-15T04:24:58.345Z,87.10
2018-02-15T04:27:24.926Z,86.90
2018-02-15T04:29:51.870Z,86.90
2018-02-15T04:32:18.771Z,87.00
2018-02-15T04:34:45.337Z,87.00
2018-02-15T04:37:11.910Z,87.40
2018-02-15T04:39:38.450Z,87.50
2018-02-15T04:42:05.016Z,87.40
2018-02-15T04:44:31.577Z,86.90
2018-02-15T04:46:58.479Z,88.00
2018-02-15T04:49:25.125Z,88.00
2018-02-15T04:51:51.689Z,88.70
2018-02-15T04:54:18.229Z,88.80
2018-02-15T04:56:44.790Z,88.90
2018-02-15T04:59:11.356Z,88.90
2018-02-15T05:01:37.881Z,88.80
2018-02-15T05:04:04.522Z,88.50
2018-02-15T05:06:31.081Z,88.30
2018-02-15T05:08:57.720Z,87.80
2018-02-15T05:11:24.341Z,86.70
2018-02-15T05:13:50.901Z,85.40
2018-02-15T05:16:17.536Z,84.80
2018-02-15T05:18:44.097Z,83.70
2018-02-15T05:21:10.677Z,82.90
2018-02-15T05:23:37.218Z,81.80
2018-02-15T05:26:03.789Z,81.80
2018-02-15T05:28:30.349Z,81.30
2018-02-15T05:30:56.924Z,81.50
2018-02-15T05:33:23.488Z,81.40
2018-02-15T05:35:50.058Z,81.10
2018-02-15T05:38:16.605Z,81.00
2018-02-15T05:40:43.170Z,80.80
2018-02-15T05:43:10.128Z,80.30
2018-02-15T05:45:37.154Z,79.80
2018-02-15T05:48:03.729Z,79.80
2018-02-15T05:50:30.376Z,79.60
2018-02-15T05:52:56.944Z,80.20
2018-02-15T05:55:23.935Z,80.30
2018-02-15T05:57:50.710Z,80.30
2018-02-15T06:00:17.246Z,80.60
2018-02-15T06:02:43.813Z,81.30
2018-02-15T06:05:10.381Z,81.80
2018-02-15T06:07:37.285Z,82.60
2018-02-15T06:10:03.848Z,82.60
2018-02-15T06:12:30.417Z,83.50
2018-02-15T06:14:56.949Z,83.80
2018-02-15T06:17:23.513Z,84.40
2018-02-15T06:19:50.081Z,85.00
2018-02-15T06:22:16.654Z,85.10
2018-02-15T06:24:43.236Z,85.40
2018-02-15T06:27:09.887Z,85.50
2018-02-15T06:29:36.513Z,85.40
2018-02-15T06:32:03.186Z,85.10
2018-02-15T06:34:29.978Z,84.90
2018-02-15T06:36:56.996Z,84.60
2018-02-15T06:39:23.553Z,84.80
2018-02-15T06:41:50.126Z,85.30
2018-02-15T06:44:17.506Z,85.10
2018-02-15T06:46:44.111Z,85.10
2018-02-15T06:49:10.672Z,85.50
2018-02-15T06:51:37.276Z,85.50
2018-02-15T06:54:03.849Z,85.60
2018-02-15T06:56:30.443Z,85.30
2018-02-15T06:58:57.345Z,84.90
2018-02-15T07:01:23.937Z,84.90
2018-02-15T07:03:50.877Z,84.50
2018-02-15T07:06:17.426Z,84.50
2018-02-15T07:08:44.154Z,83.90
2018-02-15T07:11:10.704Z,83.00
2018-02-15T07:13:37.258Z,82.60
2018-02-15T07:16:03.830Z,82.30
2018-02-15T07:18:30.829Z,81.20
2018-02-15T07:20:57.381Z,81.20
2018-02-15T07:23:23.960Z,80.80
2018-02-15T07:25:50.525Z,81.20
2018-02-15T07:28:17.053Z,81.00
2018-02-15T07:30:43.663Z,80.10
2018-02-15T07:33:10.245Z,79.90
2018-02-15T07:35:36.766Z,80.80
2018-02-15T07:38:03.345Z,80.50
2018-02-15T07:40:29.937Z,79.50
2018-02-15T07:42:56.501Z,79.30
2018-02-15T07:45:23.061Z,80.20
2018-02-15T07:47:49.673Z,80.30
2018-02-15T07:50:16.264Z,80.20
2018-02-15T07:52:42.921Z,80.30
2018-02-15T07:55:09.944Z,80.90
2018-02-15T07:57:36.535Z,80.90
2018-02-15T08:00:03.148Z,80.30
2018-02-15T08:02:29.773Z,80.00
2018-02-15T08:04:56.315Z,80.40
2018-02-15T08:07:23.270Z,80.10
2018-02-15T08:09:50.217Z,80.70
2018-02-15T08:12:17.116Z,80.80
2018-02-15T08:14:43.682Z,80.80
2018-02-15T08:17:10.251Z,81.20
2018-02-15T08:19:36.790Z,79.50
2018-02-15T08:22:03.386Z,79.70
2018-02-15T08:24:29.961Z,80.10
2018-02-15T08:26:56.510Z,80.10
2018-02-15T08:29:23.086Z,79.70
2018-02-15T08:31:49.666Z,79.30
2018-02-15T08:34:16.569Z,79.20
2018-02-15T08:36:43.134Z,79.20
2018-02-15T08:39:09.701Z,78.70
2018-02-15T08:41:36.605Z,77.80
2018-02-15T08:44:03.182Z,77.80
2018-02-15T08:46:29.746Z,77.20
2018-02-15T08:48:56.281Z,77.10
2018-02-15T08:51:22.909Z,76.00
2018-02-15T08:53:49.536Z,75.80
2018-02-15T08:56:16.126Z,75.30
2018-02-15T08:58:42.721Z,75.40
2018-02-15T09:01:09.292Z,75.20
2018-02-15T09:03:35.817Z,73.70
2018-02-15T09:06:02.389Z,73.50
2018-02-15T09:08:28.952Z,72.80
2018-02-15T09:10:55.482Z,72.30
2018-02-15T09:13:22.053Z,71.70
2018-02-15T09:15:48.629Z,72.20
2018-02-15T09:18:15.547Z,72.00
2018-02-15T09:20:42.134Z,72.00
2018-02-15T09:23:09.086Z,72.40
2018-02-15T09:25:35.996Z,71.80
2018-02-15T09:28:02.558Z,71.80
2018-02-15T09:30:29.128Z,72.50
2018-02-15T09:32:55.661Z,72.50
2018-02-15T09:35:22.218Z,70.70
2018-02-15T09:37:48.790Z,71.30
2018-02-15T09:40:15.701Z,71.00
2018-02-15T09:42:42.261Z,71.00
2018-02-15T09:45:08.831Z,71.50
2018-02-15T09:47:35.733Z,70.10
2018-02-15T09:50:02.297Z,70.10
2018-02-15T09:52:28.874Z,69.70
2018-02-15T09:54:55.786Z,68.50
2018-02-15T09:57:22.346Z,68.50
2018-02-15T09:59:48.989Z,68.10
2018-02-15T10:02:15.543Z,68.50
2018-02-15T10:04:42.118Z,68.10
2018-02-15T10:07:08.689Z,67.80
2018-02-15T10:09:35.585Z,67.00
2018-02-15T10:12:02.155Z,67.00
2018-02-15T10:14:28.729Z,65.50
2018-02-15T10:16:55.636Z,66.60
2018-02-15T10:19:22.216Z,66.70
2018-02-15T10:21:48.785Z,65.80
2018-02-15T10:24:15.693Z,64.10
2018-02-15T10:26:42.278Z,64.10
2018-02-15T10:29:09.212Z,63.80
2018-02-15T10:31:35.737Z,63.80
2018-02-15T10:34:02.309Z,63.60
2018-02-15T10:36:28.878Z,64.80
2018-02-15T10:38:55.781Z,63.10
2018-02-15T10:41:22.349Z,63.10
2018-02-15T10:43:48.909Z,62.80
2018-02-15T10:46:15.441Z,62.60
2018-02-15T10:48:42.006Z,62.30
2018-02-15T10:51:08.577Z,61.90
2018-02-15T10:53:35.125Z,61.50
2018-02-15T10:56:02.139Z,61.30
2018-02-15T10:58:28.766Z,61.30
2018-02-15T11:04:04.268Z,60.90
2018-02-15T11:06:30.841Z,61.50
2018-02-15T11:08:57.405Z,61.80
2018-02-15T11:11:23.949Z,62.30
2018-02-15T11:13:50.520Z,61.90
2018-02-15T11:16:17.477Z,63.40
2018-02-15T11:18:44.005Z,63.40
2018-02-15T11:21:10.947Z,62.00
2018-02-15T11:23:37.518Z,62.00
2018-02-15T11:26:04.426Z,61.60
2018-02-15T11:28:31.001Z,61.60
2018-02-15T11:30:58.806Z,63.60
2018-02-15T11:33:25.347Z,63.10
2018-02-15T11:35:52.285Z,61.50
2018-02-15T11:38:18.865Z,61.50
2018-02-15T11:40:45.413Z,61.30
2018-02-15T11:43:11.981Z,61.30
2018-02-15T11:45:38.578Z,61.50
2018-02-15T11:48:05.113Z,61.80
2018-02-15T11:50:31.694Z,61.70
2018-02-15T11:52:58.266Z,61.60
2018-02-15T11:55:24.801Z,62.10
2018-02-15T11:57:51.369Z,62.20
2018-02-15T12:00:18.014Z,63.00
2018-02-15T12:02:44.565Z,63.00
2018-02-15T12:05:11.168Z,63.30
2018-02-15T12:07:38.110Z,63.40
2018-02-15T12:10:04.694Z,63.40
2018-02-15T12:12:31.269Z,63.50
2018-02-15T12:14:57.841Z,63.50
2018-02-15T12:17:24.458Z,63.60
2018-02-15T12:19:51.030Z,64.50
2018-02-15T12:22:17.589Z,64.50
2018-02-15T12:24:44.118Z,64.20
2018-02-15T12:27:10.694Z,64.20
2018-02-15T12:29:37.257Z,63.70
2018-02-15T12:32:04.158Z,63.80
2018-02-15T12:34:30.725Z,63.80
2018-02-15T12:36:57.303Z,63.80
2018-02-15T12:39:23.886Z,63.50
2018-02-15T12:41:50.445Z,63.20
2018-02-15T12:44:17.009Z,63.80
2018-02-15T12:46:43.622Z,64.20
2018-02-15T12:49:10.231Z,64.20
2018-02-15T12:51:36.938Z,64.20
2018-02-15T12:54:03.536Z,64.00
2018-02-15T12:56:30.466Z,63.20
2018-02-15T12:58:57.053Z,63.20
2018-02-15T13:01:23.662Z,63.00
2018-02-15T13:03:50.229Z,62.70
2018-02-15T13:06:16.801Z,62.70
2018-02-15T13:08:43.341Z,63.20
2018-02-15T13:11:10.286Z,63.40
2018-02-15T13:13:36.850Z,63.40
2018-02-15T13:16:15.838Z,63.40
2018-02-15T13:18:42.411Z,63.60
2018-02-15T13:21:09.017Z,63.90
2018-02-15T13:23:35.598Z,63.80
2018-02-15T13:26:02.185Z,62.80
2018-02-15T13:28:38.377Z,63.50
2018-02-15T13:31:05.137Z,63.80
2018-02-15T13:33:31.707Z,63.80
2018-02-15T13:35:58.309Z,64.40
2018-02-15T13:38:24.889Z,64.70
2018-02-15T13:40:51.441Z,64.50
2018-02-15T13:43:18.025Z,65.40
2018-02-15T13:45:44.966Z,65.60
2018-02-15T13:48:11.501Z,65.60
2018-02-15T13:50:38.070Z,66.10
2018-02-15T13:53:04.634Z,65.60
2018-02-15T13:55:31.537Z,66.30
2018-02-15T13:57:58.110Z,66.30
2018-02-15T14:00:24.766Z,66.40
2018-02-15T14:02:51.318Z,66.40
2018-02-15T14:05:17.898Z,67.00
2018-02-15T14:07:44.457Z,68.80
2018-02-15T14:10:10.992Z,70.40
2018-02-15T14:12:37.566Z,70.60
2018-02-15T14:15:04.158Z,71.90
2018-02-15T14:17:30.697Z,72.10
2018-02-15T14:19:57.278Z,73.50
2018-02-15T14:22:23.857Z,74.60
2018-02-15T14:24:50.389Z,75.60
2018-02-15T14:27:16.965Z,76.80
2018-02-15T14:29:43.530Z,77.70
2018-02-15T14:32:10.065Z,79.40
2018-02-15T14:34:36.650Z,80.50
2018-02-15T14:37:03.582Z,83.00
2018-02-15T14:39:30.131Z,83.00
2018-02-15T14:41:56.742Z,84.10
2018-02-15T14:44:23.338Z,84.20
2018-02-15T14:46:49.917Z,85.80
2018-02-15T14:49:16.477Z,87.30
2018-02-15T14:51:43.041Z,87.30
2018-02-15T14:54:09.580Z,87.70
2018-02-15T14:56:36.157Z,89.00
2018-02-15T14:59:02.724Z,89.00
2018-02-15T15:01:29.681Z,90.10
2018-02-15T15:03:56.251Z,90.10
2018-02-15T15:06:22.826Z,90.20
2018-02-15T15:08:49.370Z,90.40
2018-02-15T15:11:15.930Z,90.50
2018-02-15T15:13:42.526Z,90.40
2018-02-15T15:16:09.437Z,90.80
2018-02-15T15:18:36.001Z,90.90
2018-02-15T15:21:02.582Z,91.20
2018-02-15T15:23:29.491Z,91.20
2018-02-15T15:25:56.049Z,91.20
2018-02-15T15:28:22.626Z,91.40
2018-02-15T15:30:49.529Z,91.10
2018-02-15T15:33:16.095Z,91.10
2018-02-15T15:35:42.713Z,90.70
2018-02-15T15:38:09.267Z,91.00
2018-02-15T15:40:35.838Z,91.10
2018-02-15T15:43:02.414Z,91.10
2018-02-15T15:45:29.330Z,91.60
2018-02-15T15:47:55.894Z,91.60
2018-02-15T15:50:22.470Z,91.70
2018-02-15T15:52:49.378Z,92.10
2018-02-15T15:55:15.963Z,92.10
2018-02-15T15:57:42.897Z,91.30
2018-02-15T16:00:09.433Z,91.30
2018-02-15T16:02:36.042Z,91.20
2018-02-15T16:05:02.622Z,92.00
2018-02-15T16:07:29.169Z,92.40
2018-02-15T16:09:55.737Z,92.80
2018-02-15T16:12:22.347Z,92.70
2018-02-15T16:14:48.885Z,92.40
2018-02-15T16:17:15.454Z,93.20
2018-02-15T16:19:42.017Z,93.30
2018-02-15T16:22:08.576Z,93.50
2018-02-15T16:24:35.151Z,93.80
2018-02-15T16:27:02.090Z,94.40
2018-02-15T16:29:28.630Z,94.40
2018-02-15T16:31:55.205Z,94.40
2018-02-15T16:34:22.154Z,94.00
2018-02-15T16:36:49.081Z,94.10
2018-02-15T16:39:15.689Z,94.10
2018-02-15T16:41:42.257Z,94.60
2018-02-15T16:44:08.792Z,95.00
2018-02-15T16:46:35.367Z,94.70
2018-02-15T16:49:01.932Z,94.70
2018-02-15T16:51:28.472Z,95.10
2018-02-15T16:53:55.046Z,95.40
2018-02-15T16:56:21.985Z,95.40
2018-02-15T16:58:48.517Z,95.40
2018-02-15T17:01:15.130Z,95.50
2018-02-15T17:03:41.701Z,95.60
2018-02-15T17:06:08.238Z,95.90
2018-02-15T17:08:34.826Z,96.00
2018-02-15T17:11:01.410Z,96.00
2018-02-15T17:13:27.945Z,96.10
2018-02-15T17:15:54.881Z,96.20
2018-02-15T17:18:21.540Z,96.20
2018-02-15T17:20:48.457Z,96.20
2018-02-15T17:23:15.013Z,96.20
2018-02-15T17:25:41.613Z,96.40
2018-02-15T17:28:08.158Z,96.60
2018-02-15T17:30:34.726Z,96.80
2018-02-15T17:33:01.294Z,96.80
2018-02-15T17:35:27.829Z,96.50
2018-02-15T17:37:54.454Z,96.30
2018-02-15T17:40:21.143Z,96.40
2018-02-15T17:42:47.674Z,96.40
2018-02-15T17:45:14.245Z,96.40
2018-02-15T17:47:40.814Z,96.20
2018-02-15T17:50:07.840Z,96.30
2018-02-15T17:52:34.409Z,96.30
2018-02-15T17:55:01.037Z,96.50
2018-02-15T17:57:27.570Z,96.30
2018-02-15T17:59:54.139Z,96.20
2018-02-15T18:02:20.780Z,96.30
2018-02-15T18:04:47.318Z,96.20
2018-02-15T18:07:13.885Z,96.00
2018-02-15T18:09:40.464Z,95.80
2018-02-15T18:12:07.378Z,96.50
2018-02-15T18:14:34.379Z,96.50
2018-02-15T18:17:01.712Z,97.00
2018-02-15T18:19:28.250Z,97.00
2018-02-15T18:21:54.897Z,97.00
2018-02-15T18:24:21.464Z,97.10
2018-02-15T18:26:48.398Z,97.00
2018-02-15T18:29:15.049Z,97.00
2018-02-15T18:31:41.681Z,97.00
2018-02-15T18:34:08.270Z,96.90
2018-02-15T18:36:34.842Z,97.00
2018-02-15T18:39:01.794Z,97.20
2018-02-15T18:41:28.349Z,97.20
2018-02-15T18:43:54.925Z,97.30
2018-02-15T18:46:21.566Z,97.40
2018-02-15T18:48:48.092Z,97.50
2018-02-15T18:51:14.762Z,97.50
2018-02-15T18:53:41.351Z,97.70
2018-02-15T18:56:08.023Z,97.70
2018-02-15T18:58:34.999Z,97.60
2018-02-15T19:01:01.687Z,97.60
2018-02-15T19:03:28.346Z,97.60
2018-02-15T19:05:54.994Z,97.70
2018-02-15T19:08:21.646Z,97.70
2018-02-15T19:10:48.208Z,97.70
2018-02-15T19:13:14.780Z,97.70
2018-02-15T19:15:41.729Z,97.70
2018-02-15T19:18:08.654Z,97.70
2018-02-15T19:20:35.232Z,97.70
2018-02-15T19:23:02.173Z,97.70
2018-02-15T19:25:28.907Z,97.80
2018-02-15T19:27:55.501Z,97.80
2018-02-15T19:30:22.452Z,97.80
2018-02-15T19:32:49.010Z,97.80
2018-02-15T19:35:16.823Z,97.80
2018-02-15T19:37:43.427Z,97.90
2018-02-15T19:40:11.198Z,97.90
2018-02-15T19:42:38.749Z,97.90
2018-02-15T19:45:05.346Z,97.90
2018-02-15T19:47:31.905Z,97.90
2018-02-15T19:49:58.488Z,97.90
2018-02-15T19:52:25.157Z,97.90
2018-02-15T19:54:52.183Z,98.00
2018-02-15T19:57:18.782Z,98.00
2018-02-15T19:59:47.135Z,98.00
2018-02-15T20:02:13.706Z,98.00
2018-02-15T20:04:40.334Z,98.10
2018-02-15T20:07:06.926Z,98.10
2018-02-15T20:09:33.477Z,98.10
2018-02-15T20:12:00.066Z,98.10
2018-02-15T20:14:26.723Z,98.10
2018-02-15T20:16:53.286Z,98.20
2018-02-15T20:19:20.285Z,98.30
2018-02-15T20:21:46.889Z,98.30
2018-02-15T20:24:15.303Z,98.20
2018-02-15T20:27:01.758Z,98.20
2018-02-15T20:29:28.337Z,98.20
2018-02-15T20:31:54.937Z,98.20
2018-02-15T20:34:21.517Z,98.20
2018-02-15T20:36:48.282Z,98.30
2018-02-15T20:39:21.155Z,98.30
2018-02-15T20:41:48.830Z,98.40
2018-02-15T20:44:15.456Z,98.30
2018-02-15T20:46:42.284Z,98.40
2018-02-15T20:49:15.832Z,98.40
2018-02-15T20:51:48.321Z,98.40
2018-02-15T20:54:20.869Z,98.40
2018-02-15T20:56:47.478Z,98.40
2018-02-15T20:59:14.054Z,98.40
2018-02-15T21:01:40.983Z,98.50
2018-02-15T21:04:07.592Z,98.40
2018-02-15T21:06:34.641Z,98.40
2018-02-15T21:09:01.209Z,98.40
2018-02-15T21:11:27.803Z,98.50
2018-02-15T21:13:54.831Z,98.40
2018-02-15T21:16:21.368Z,98.40
2018-02-15T21:18:48.790Z,98.40
2018-02-15T21:21:15.746Z,98.50
2018-02-15T21:23:42.835Z,98.40
2018-02-15T21:26:09.409Z,98.50
2018-02-15T21:28:36.008Z,98.50
2018-02-15T21:31:02.552Z,98.50
2018-02-15T21:33:29.499Z,98.50
2018-02-15T21:35:56.452Z,98.50
2018-02-15T21:38:23.359Z,98.50
2018-02-15T21:40:50.038Z,98.50
2018-02-15T21:43:16.618Z,98.50
2018-02-15T21:45:43.534Z,98.50
2018-02-15T21:48:10.121Z,98.50
2018-02-15T21:50:37.069Z,98.50
2018-02-15T21:53:04.074Z,98.50
2018-02-15T21:55:30.713Z,98.50
2018-02-15T21:57:57.297Z,98.50
2018-02-15T22:00:23.837Z,98.50
2018-02-15T22:02:50.405Z,98.50
2018-02-15T22:05:17.009Z,98.50
2018-02-15T22:07:43.550Z,98.50
2018-02-15T22:10:10.133Z,98.50
2018-02-15T22:12:36.702Z,98.40
2018-02-15T22:15:03.249Z,98.30
2018-02-15T22:17:30.193Z,98.30
2018-02-15T22:19:56.823Z,98.30
2018-02-15T22:22:23.366Z,98.20
2018-02-15T22:24:50.145Z,98.30
2018-02-15T22:27:17.061Z,98.30
2018-02-15T22:29:43.585Z,98.30
2018-02-15T22:32:10.155Z,98.20
2018-02-15T22:34:36.774Z,98.30
2018-02-15T22:37:03.943Z,98.30
2018-02-15T22:39:31.230Z,98.40
2018-02-15T22:41:57.870Z,98.40
2018-02-15T22:44:24.444Z,98.50
2018-02-15T22:46:51.263Z,98.50
2018-02-15T22:49:17.834Z,98.50
2018-02-15T22:51:44.373Z,98.50
2018-02-15T22:54:10.938Z,98.50
2018-02-15T22:56:37.501Z,98.50
2018-02-15T22:59:04.073Z,98.50
2018-02-15T23:01:31.025Z,98.50
2018-02-15T23:03:58.049Z,98.50
2018-02-15T23:06:24.581Z,98.50
2018-02-15T23:08:51.158Z,98.50
2018-02-15T23:11:17.725Z,98.50
2018-02-15T23:13:44.722Z,98.50
2018-02-15T23:16:11.297Z,98.50
2018-02-15T23:18:37.883Z,98.50
2018-02-15T23:21:04.801Z,98.50
2018-02-15T23:23:31.366Z,98.50
2018-02-15T23:25:57.945Z,98.50
2018-02-15T23:28:24.491Z,98.50
2018-02-15T23:30:51.090Z,98.50
2018-02-15T23:33:17.652Z,98.50
2018-02-15T23:35:44.191Z,98.50
2018-02-15T23:38:10.766Z,98.50
2018-02-15T23:40:37.716Z,98.50
2018-02-15T23:43:04.620Z,98.50
2018-02-15T23:45:31.191Z,98.50
2018-02-15T23:47:57.838Z,98.50
2018-02-15T23:50:24.377Z,98.50
2018-02-15T23:52:51.034Z,98.50
2018-02-15T23:55:17.617Z,98.50
2018-02-15T23:57:44.514Z,98.50
